Time;durP1;ratioP1;P1;durP2;ratioP2;P2;SDS_P1;SDS_P2;PMS_P1;PMS_P2;Temp;Humidity;BMP_temperature;BMP_pressure;BME280_temperature;BME280_humidity;BME280_pressure;Samples;Min_cycle;Max_cycle;Signal;HPM_P1;HPM_P2
2022/03/20 00:02:32;;;;;;;14.98;7.97;;;;;;;;;;6263568;28;20119;-69
2022/03/20 00:05:38;;;;;;;12.82;7.97;;;;;;;;;;6263016;28;20501;-69
2022/03/20 00:08:40;;;;;;;14.32;7.72;;;;;;;;;;6259055;28;20488;-69
2022/03/20 00:11:41;;;;;;;17.38;8.77;;;;;;;;;;6255562;28;20069;-69
2022/03/20 00:14:43;;;;;;;13.88;7.97;;;;;;;;;;6254428;28;20182;-69
2022/03/20 00:17:46;;;;;;;13.63;8.10;;;;;;;;;;6255567;28;20041;-69
2022/03/20 00:20:49;;;;;;;14.35;8.35;;;;;;;;;;6255482;28;20049;-69
2022/03/20 00:23:50;;;;;;;18.55;8.18;;;;;;;;;;6265691;28;20127;-68
2022/03/20 00:26:57;;;;;;;12.88;8.13;;;;;;;;;;6271553;28;20041;-68
2022/03/20 00:29:58;;;;;;;18.77;8.65;;;;;;;;;;6273168;28;20185;-69
2022/03/20 00:33:01;;;;;;;16.13;7.85;;;;;;;;;;6281478;28;20055;-69
2022/03/20 00:36:04;;;;;;;13.30;7.97;;;;;;;;;;6279073;28;20134;-69
2022/03/20 00:39:05;;;;;;;12.45;7.75;;;;;;;;;;6272668;28;20117;-69
2022/03/20 00:42:07;;;;;;;16.20;7.40;;;;;;;;;;6271634;28;20057;-70
2022/03/20 00:45:09;;;;;;;15.15;7.50;;;;;;;;;;6267436;28;20127;-69
2022/03/20 00:48:12;;;;;;;18.42;10.57;;;;;;;;;;6262549;28;20052;-69
2022/03/20 00:51:14;;;;;;;40.08;18.17;;;;;;;;;;6258589;28;20052;-69
2022/03/20 00:54:15;;;;;;;48.47;22.80;;;;;;;;;;6251886;28;20815;-68
2022/03/20 00:57:17;;;;;;;32.03;15.55;;;;;;;;;;6267640;28;20049;-69
2022/03/20 01:00:19;;;;;;;41.53;19.90;;;;;;;;;;6268866;28;20178;-72
2022/03/20 01:03:21;;;;;;;15.02;8.85;;;;;;;;;;6265656;28;20436;-68
2022/03/20 01:06:23;;;;;;;14.88;8.07;;;;;;;;;;6257784;28;20732;-68
2022/03/20 01:09:25;;;;;;;12.23;7.53;;;;;;;;;;6272106;28;20123;-67
2022/03/20 01:12:26;;;;;;;14.65;7.70;;;;;;;;;;6279183;28;20539;-68
2022/03/20 01:15:28;;;;;;;12.90;7.60;;;;;;;;;;6277263;28;20098;-68
2022/03/20 01:18:31;;;;;;;13.38;7.70;;;;;;;;;;6271452;28;20483;-68
2022/03/20 01:21:32;;;;;;;18.00;7.65;;;;;;;;;;6272134;28;20049;-68
2022/03/20 01:24:34;;;;;;;13.23;7.97;;;;;;;;;;6268422;28;20093;-70
2022/03/20 01:27:36;;;;;;;15.80;8.40;;;;;;;;;;6263449;28;20408;-70
2022/03/20 01:30:38;;;;;;;13.35;7.72;;;;;;;;;;6265730;28;20522;-70
2022/03/20 01:33:41;;;;;;;15.10;7.57;;;;;;;;;;6275605;28;20095;-72
2022/03/20 01:36:42;;;;;;;13.60;8.27;;;;;;;;;;6272791;28;20052;-70
2022/03/20 01:39:45;;;;;;;14.88;8.35;;;;;;;;;;6272748;28;20124;-70
2022/03/20 01:42:48;;;;;;;15.90;7.97;;;;;;;;;;6268309;28;20191;-70
2022/03/20 01:45:49;;;;;;;17.70;7.93;;;;;;;;;;6263392;28;20157;-70
2022/03/20 01:48:53;;;;;;;15.95;8.20;;;;;;;;;;6266778;28;20131;-70
2022/03/20 01:52:13;;;;;;;15.68;8.10;;;;;;;;;;6278673;28;20119;-70
2022/03/20 01:55:15;;;;;;;15.05;8.23;;;;;;;;;;6272848;28;20053;-69
2022/03/20 01:58:17;;;;;;;13.55;8.10;;;;;;;;;;6269680;28;20410;-70
2022/03/20 02:01:19;;;;;;;17.77;8.27;;;;;;;;;;6268177;28;20140;-70
2022/03/20 02:04:22;;;;;;;16.77;7.93;;;;;;;;;;6262505;28;20420;-70
2022/03/20 02:07:24;;;;;;;14.45;8.27;;;;;;;;;;6276546;28;20045;-68
2022/03/20 02:10:35;;;;;;;14.30;8.05;;;;;;;;;;6277983;28;20060;-69
2022/03/20 02:13:36;;;;;;;17.17;8.07;;;;;;;;;;6273136;28;20440;-68
2022/03/20 02:16:39;;;;;;;16.27;9.23;;;;;;;;;;6273028;28;20140;-68
2022/03/20 02:19:42;;;;;;;13.88;8.57;;;;;;;;;;6270146;28;20103;-67
2022/03/20 02:22:46;;;;;;;12.45;8.10;;;;;;;;;;6263849;28;20382;-68
2022/03/20 02:25:48;;;;;;;16.35;8.60;;;;;;;;;;6260419;28;20047;-66
2022/03/20 02:28:50;;;;;;;15.93;8.18;;;;;;;;;;6269505;28;20057;-66
2022/03/20 02:31:51;;;;;;;14.82;8.32;;;;;;;;;;6272828;28;20131;-67
2022/03/20 02:34:53;;;;;;;16.30;7.88;;;;;;;;;;6271486;28;20477;-67
2022/03/20 02:37:56;;;;;;;19.05;8.55;;;;;;;;;;6269075;28;20041;-68
2022/03/20 02:40:59;;;;;;;16.15;8.75;;;;;;;;;;6276751;28;20420;-70
2022/03/20 02:44:03;;;;;;;16.40;8.10;;;;;;;;;;6280589;28;20625;-70
2022/03/20 02:47:07;;;;;;;13.30;8.10;;;;;;;;;;6271573;28;20041;-70
2022/03/20 02:50:10;;;;;;;15.60;8.73;;;;;;;;;;6270271;28;20491;-69
2022/03/20 02:53:14;;;;;;;13.43;7.90;;;;;;;;;;6266093;28;20045;-68
2022/03/20 02:56:16;;;;;;;13.90;8.30;;;;;;;;;;6268204;28;20064;-68
2022/03/20 02:59:17;;;;;;;15.38;9.23;;;;;;;;;;6260614;28;20053;-69
2022/03/20 03:02:19;;;;;;;14.52;8.32;;;;;;;;;;6259720;28;20074;-69
2022/03/20 03:05:22;;;;;;;16.35;9.07;;;;;;;;;;6256755;28;20091;-69
2022/03/20 03:11:44;;;;;;;15.02;8.73;;;;;;;;;;6267818;28;20576;-69
2022/03/20 03:18:06;;;;;;;17.48;9.30;;;;;;;;;;6271770;28;20417;-69
2022/03/20 03:21:10;;;;;;;13.68;8.52;;;;;;;;;;6277507;28;20056;-68
2022/03/20 03:24:13;;;;;;;;;;;;;;;;;;6274282;28;20053;-70
2022/03/20 03:27:15;;;;;;;13.35;8.05;;;;;;;;;;6268454;28;20066;-68
2022/03/20 03:30:17;;;;;;;17.08;8.82;;;;;;;;;;6265898;28;20393;-68
2022/03/20 03:33:19;;;;;;;14.63;9.25;;;;;;;;;;6263481;28;20506;-68
2022/03/20 03:36:20;;;;;;;14.75;8.63;;;;;;;;;;6259307;28;20045;-68
2022/03/20 03:39:23;;;;;;;14.48;8.30;;;;;;;;;;6255279;28;20056;-68
2022/03/20 03:42:24;;;;;;;15.77;8.57;;;;;;;;;;6253540;28;20400;-71
2022/03/20 03:45:26;;;;;;;15.70;9.05;;;;;;;;;;6248990;28;20136;-70
2022/03/20 03:48:28;;;;;;;14.93;9.77;;;;;;;;;;6254120;28;20094;-70
2022/03/20 03:51:30;;;;;;;15.75;9.35;;;;;;;;;;6276175;28;20051;-70
2022/03/20 03:54:33;;;;;;;15.48;9.13;;;;;;;;;;6277860;28;21060;-70
2022/03/20 03:57:34;;;;;;;15.40;8.05;;;;;;;;;;6276973;28;20040;-70
2022/03/20 04:00:36;;;;;;;14.88;9.10;;;;;;;;;;6276543;28;20062;-70
2022/03/20 04:03:37;;;;;;;15.70;8.85;;;;;;;;;;6273275;28;20075;-70
2022/03/20 04:06:39;;;;;;;16.50;9.15;;;;;;;;;;6265840;28;20053;-70
2022/03/20 04:09:42;;;;;;;15.50;8.75;;;;;;;;;;6264750;28;20080;-70
2022/03/20 04:12:44;;;;;;;16.85;9.15;;;;;;;;;;6262292;28;20049;-70
2022/03/20 04:15:45;;;;;;;16.02;9.18;;;;;;;;;;6257411;28;20457;-70
2022/03/20 04:18:47;;;;;;;15.15;8.75;;;;;;;;;;6253854;28;20168;-70
2022/03/20 04:21:49;;;;;;;16.15;9.30;;;;;;;;;;6248668;28;20172;-70
2022/03/20 04:24:52;;;;;;;20.40;7.80;;;;;;;;;;6249387;28;20053;-70
2022/03/20 04:27:56;;;;;;;14.63;9.38;;;;;;;;;;6268870;28;20110;-70
2022/03/20 04:30:58;;;;;;;17.13;9.88;;;;;;;;;;6283389;28;20048;-70
2022/03/20 04:33:59;;;;;;;14.20;9.02;;;;;;;;;;6267736;28;20047;-70
2022/03/20 04:37:05;;;;;;;21.00;9.32;;;;;;;;;;6265353;28;20052;-70
2022/03/20 04:40:10;;;;;;;14.80;8.68;;;;;;;;;;6270544;28;20408;-70
2022/03/20 04:43:12;;;;;;;19.23;8.32;;;;;;;;;;6266898;28;20072;-70
2022/03/20 04:46:14;;;;;;;13.32;8.18;;;;;;;;;;6263207;28;20124;-71
2022/03/20 04:59:15;;;;;;;18.20;9.10;;;;;;;;;;6253838;28;20110;-70
2022/03/20 05:02:17;;;;;;;17.27;8.55;;;;;;;;;;6269749;28;20408;-70
2022/03/20 05:05:19;;;;;;;15.52;9.10;;;;;;;;;;6264901;28;20041;-71
2022/03/20 05:08:20;;;;;;;14.00;8.35;;;;;;;;;;6258030;28;20053;-70
2022/03/20 05:14:42;;;;;;;16.83;9.23;;;;;;;;;;6264531;28;20482;-70
2022/03/20 05:17:44;;;;;;;17.15;8.80;;;;;;;;;;6272185;28;20170;-70
2022/03/20 05:20:45;;;;;;;16.38;8.75;;;;;;;;;;6271811;28;20053;-70
2022/03/20 05:23:47;;;;;;;14.43;8.63;;;;;;;;;;6267440;28;20459;-69
2022/03/20 05:26:50;;;;;;;17.70;9.65;;;;;;;;;;6263683;28;20034;-70
2022/03/20 05:29:51;;;;;;;17.40;9.05;;;;;;;;;;6256367;28;20170;-70
2022/03/20 05:32:53;;;;;;;17.83;10.30;;;;;;;;;;6251351;28;20053;-70
2022/03/20 05:35:55;;;;;;;14.48;8.82;;;;;;;;;;6260394;28;20078;-70
2022/03/20 05:38:56;;;;;;;19.38;9.50;;;;;;;;;;6267886;28;20102;-70
2022/03/20 05:41:59;;;;;;;19.08;10.48;;;;;;;;;;6263280;28;20095;-70
2022/03/20 05:45:02;;;;;;;17.23;9.52;;;;;;;;;;6259784;28;20041;-70
2022/03/20 05:48:05;;;;;;;17.83;9.90;;;;;;;;;;6265469;28;20064;-70
2022/03/20 05:51:07;;;;;;;17.58;9.50;;;;;;;;;;6277537;28;20100;-70
2022/03/20 05:54:08;;;;;;;19.55;10.25;;;;;;;;;;6274749;28;20046;-70
2022/03/20 06:00:35;;;;;;;17.05;10.13;;;;;;;;;;6263798;28;20045;-70
2022/03/20 06:03:37;;;;;;;21.27;10.30;;;;;;;;;;6268557;28;20139;-70
2022/03/20 06:06:42;;;;;;;14.90;8.95;;;;;;;;;;6266765;28;20081;-70
2022/03/20 06:09:43;;;;;;;16.63;9.98;;;;;;;;;;6265950;28;20098;-70
2022/03/20 06:12:47;;;;;;;17.60;9.85;;;;;;;;;;6277342;28;20130;-70
2022/03/20 06:15:48;;;;;;;18.40;10.67;;;;;;;;;;6275834;28;20044;-70
2022/03/20 06:18:50;;;;;;;16.35;10.23;;;;;;;;;;6270985;28;20459;-70
2022/03/20 06:21:52;;;;;;;26.77;11.10;;;;;;;;;;6267749;28;20123;-70
2022/03/20 06:24:53;;;;;;;21.98;10.82;;;;;;;;;;6267177;28;20063;-70
2022/03/20 06:27:59;;;;;;;20.08;11.13;;;;;;;;;;6262654;28;20067;-70
2022/03/20 06:31:01;;;;;;;18.15;9.90;;;;;;;;;;6275051;28;20052;-70
2022/03/20 06:34:04;;;;;;;21.70;10.98;;;;;;;;;;6274031;28;20036;-70
2022/03/20 06:37:06;;;;;;;23.98;11.68;;;;;;;;;;6272003;28;20111;-70
2022/03/20 06:40:08;;;;;;;18.48;11.10;;;;;;;;;;6267748;28;20053;-70
2022/03/20 06:43:12;;;;;;;17.00;11.10;;;;;;;;;;6263741;28;20052;-68
2022/03/20 06:46:14;;;;;;;19.35;11.02;;;;;;;;;;6274836;28;20048;-69
2022/03/20 06:49:15;;;;;;;22.75;11.93;;;;;;;;;;6279036;28;20175;-69
2022/03/20 06:52:17;;;;;;;18.27;11.35;;;;;;;;;;6276661;28;20128;-69
2022/03/20 06:55:18;;;;;;;19.40;11.10;;;;;;;;;;6273613;28;20103;-69
2022/03/20 06:58:22;;;;;;;20.65;11.90;;;;;;;;;;6267934;28;20048;-70
2022/03/20 07:01:24;;;;;;;21.75;12.90;;;;;;;;;;6266068;28;20132;-69
2022/03/20 07:04:26;;;;;;;20.45;12.55;;;;;;;;;;6263425;28;20072;-69
2022/03/20 07:07:28;;;;;;;25.27;12.43;;;;;;;;;;6261031;28;20042;-70
2022/03/20 07:10:29;;;;;;;25.33;12.63;;;;;;;;;;6272755;28;20056;-69
2022/03/20 07:13:52;;;;;;;20.40;11.60;;;;;;;;;;6272413;28;20052;-70
2022/03/20 07:16:53;;;;;;;20.67;12.20;;;;;;;;;;6267133;28;20060;-69
2022/03/20 07:19:55;;;;;;;17.23;11.57;;;;;;;;;;6268433;28;20170;-69
2022/03/20 07:22:56;;;;;;;19.55;11.93;;;;;;;;;;6281413;28;20044;-67
2022/03/20 07:29:31;;;;;;;20.58;12.20;;;;;;;;;;6270166;28;20056;-65
2022/03/20 07:32:32;;;;;;;18.45;12.20;;;;;;;;;;6268835;28;20034;-66
2022/03/20 07:35:34;;;;;;;18.88;12.13;;;;;;;;;;6267050;28;20038;-68
2022/03/20 07:38:36;;;;;;;20.05;12.57;;;;;;;;;;6263516;28;20123;-69
2022/03/20 07:41:37;;;;;;;19.00;12.85;;;;;;;;;;6259273;28;20052;-70
2022/03/20 07:44:40;;;;;;;21.08;11.70;;;;;;;;;;6252785;28;20049;-68
2022/03/20 07:47:42;;;;;;;17.88;12.60;;;;;;;;;;6250583;28;20037;-67
2022/03/20 07:50:43;;;;;;;18.88;12.50;;;;;;;;;;6243990;28;20053;-68
2022/03/20 07:53:45;;;;;;;16.45;12.10;;;;;;;;;;6267348;28;20377;-68
2022/03/20 07:56:47;;;;;;;20.65;13.13;;;;;;;;;;6287598;28;20064;-68
2022/03/20 07:59:50;;;;;;;17.33;12.57;;;;;;;;;;6281583;28;20057;-68
2022/03/20 08:02:52;;;;;;;18.98;12.18;;;;;;;;;;6279080;28;20126;-67
2022/03/20 08:05:54;;;;;;;18.67;11.43;;;;;;;;;;6272022;28;20044;-67
2022/03/20 08:08:59;;;;;;;17.58;12.43;;;;;;;;;;6274204;28;20400;-67
2022/03/20 08:12:01;;;;;;;18.13;11.57;;;;;;;;;;6263982;28;20566;-68
2022/03/20 08:15:05;;;;;;;17.77;12.15;;;;;;;;;;6263628;28;20041;-65
2022/03/20 08:18:07;;;;;;;15.93;12.40;;;;;;;;;;6258386;28;20489;-65
2022/03/20 08:21:09;;;;;;;20.67;12.68;;;;;;;;;;6257582;28;20540;-64
2022/03/20 08:24:14;;;;;;;17.92;12.35;;;;;;;;;;6251904;28;20056;-65
2022/03/20 08:27:16;;;;;;;19.85;12.77;;;;;;;;;;6250706;28;20401;-65
2022/03/20 08:30:19;;;;;;;18.48;13.70;;;;;;;;;;6273658;28;20057;-65
2022/03/20 08:33:21;;;;;;;;;;;;;;;;;;6282572;28;20049;-65
2022/03/20 08:36:22;;;;;;;16.95;12.80;;;;;;;;;;6278486;28;20015;-65
2022/03/20 08:39:24;;;;;;;18.85;12.90;;;;;;;;;;6275454;28;20053;-65
2022/03/20 08:42:25;;;;;;;20.33;13.50;;;;;;;;;;6270846;28;20052;-65
2022/03/20 08:45:31;;;;;;;18.20;13.32;;;;;;;;;;6272013;28;20405;-65
2022/03/20 08:48:33;;;;;;;22.80;13.70;;;;;;;;;;6267191;28;20054;-65
2022/03/20 08:51:35;;;;;;;19.85;13.32;;;;;;;;;;6262515;28;20058;-65
2022/03/20 08:54:37;;;;;;;24.60;14.10;;;;;;;;;;6259495;28;20516;-65
2022/03/20 08:57:40;;;;;;;22.08;13.75;;;;;;;;;;6255692;28;20110;-65
2022/03/20 09:00:43;;;;;;;19.73;13.20;;;;;;;;;;6255345;28;20053;-65
2022/03/20 09:03:49;;;;;;;19.10;13.30;;;;;;;;;;6252379;28;20361;-65
2022/03/20 09:06:51;;;;;;;18.42;13.63;;;;;;;;;;6267388;28;20124;-65
2022/03/20 09:09:52;;;;;;;20.05;13.55;;;;;;;;;;6280486;28;20091;-66
2022/03/20 09:12:57;;;;;;;19.40;13.77;;;;;;;;;;6279810;28;20457;-65
2022/03/20 09:19:19;;;;;;;17.75;12.77;;;;;;;;;;6271242;28;20053;-65
2022/03/20 09:22:21;;;;;;;18.70;13.85;;;;;;;;;;6269186;28;20183;-65
2022/03/20 09:25:22;;;;;;;20.27;12.85;;;;;;;;;;6263478;28;20190;-65
2022/03/20 09:28:24;;;;;;;20.23;13.30;;;;;;;;;;6260807;28;20124;-65
2022/03/20 09:31:27;;;;;;;20.00;12.93;;;;;;;;;;6261431;28;20044;-65
2022/03/20 09:34:32;;;;;;;17.83;13.37;;;;;;;;;;6261364;28;20449;-64
2022/03/20 09:37:34;;;;;;;19.40;13.20;;;;;;;;;;6256707;28;20056;-68
2022/03/20 09:40:37;;;;;;;17.23;13.68;;;;;;;;;;6265095;28;20127;-68
2022/03/20 09:43:39;;;;;;;19.13;13.17;;;;;;;;;;6271585;28;20052;-67
2022/03/20 09:46:43;;;;;;;21.40;15.17;;;;;;;;;;6268635;28;21018;-68
2022/03/20 09:49:44;;;;;;;21.00;14.25;;;;;;;;;;6279819;28;20074;-68
2022/03/20 09:52:46;;;;;;;21.27;14.15;;;;;;;;;;6282799;28;20124;-68
2022/03/20 09:55:47;;;;;;;18.88;13.35;;;;;;;;;;6277730;28;20243;-67
2022/03/20 09:58:49;;;;;;;18.02;13.30;;;;;;;;;;6273498;28;20178;-67
2022/03/20 10:01:53;;;;;;;19.35;14.75;;;;;;;;;;6272259;28;20105;-67
2022/03/20 10:04:56;;;;;;;18.80;13.50;;;;;;;;;;6268178;28;20045;-68
2022/03/20 10:08:10;;;;;;;19.30;14.07;;;;;;;;;;6265165;28;20069;-68
2022/03/20 10:11:15;;;;;;;;;;;;;;;;;;6264516;28;20054;-71
2022/03/20 10:14:18;;;;;;;17.08;13.57;;;;;;;;;;6269853;28;19963;-68
2022/03/20 10:17:21;;;;;;;19.00;13.15;;;;;;;;;;6277405;28;20083;-67
2022/03/20 10:20:25;;;;;;;17.98;13.27;;;;;;;;;;6272971;28;20087;-67
2022/03/20 10:23:31;;;;;;;20.38;14.30;;;;;;;;;;6267672;28;20156;-67
2022/03/20 10:26:33;;;;;;;18.25;13.60;;;;;;;;;;6266552;28;20397;-67
2022/03/20 10:29:35;;;;;;;17.20;14.68;;;;;;;;;;6269309;28;20052;-67
2022/03/20 10:32:48;;;;;;;17.60;14.00;;;;;;;;;;6277787;28;20044;-67
2022/03/20 10:36:08;;;;;;;21.27;14.25;;;;;;;;;;6272054;28;20556;-67
2022/03/20 10:39:14;;;;;;;20.20;14.50;;;;;;;;;;6271192;28;20053;-67
2022/03/20 10:42:18;;;;;;;20.75;14.43;;;;;;;;;;6268868;28;20052;-67
2022/03/20 10:45:19;;;;;;;18.25;13.65;;;;;;;;;;6262271;28;20108;-67
2022/03/20 10:48:29;;;;;;;18.08;14.10;;;;;;;;;;6257305;28;20057;-67
2022/03/20 10:51:41;;;;;;;20.70;14.15;;;;;;;;;;6272529;28;20087;-68
2022/03/20 10:54:44;;;;;;;19.17;14.82;;;;;;;;;;6269220;28;20056;-67
2022/03/20 10:57:46;;;;;;;19.33;15.55;;;;;;;;;;6266548;28;20131;-67
2022/03/20 11:00:48;;;;;;;18.77;14.70;;;;;;;;;;6268173;28;20206;-68
2022/03/20 11:03:51;;;;;;;19.50;15.25;;;;;;;;;;6262017;28;20667;-68
2022/03/20 11:06:54;;;;;;;20.30;15.15;;;;;;;;;;6260634;28;20045;-67
2022/03/20 11:09:56;;;;;;;18.27;14.07;;;;;;;;;;6276505;28;20051;-67
2022/03/20 11:12:58;;;;;;;19.85;14.60;;;;;;;;;;6273504;28;20056;-67
2022/03/20 11:16:01;;;;;;;20.17;15.80;;;;;;;;;;6266178;28;20493;-68
2022/03/20 11:19:05;;;;;;;21.50;14.63;;;;;;;;;;6264081;28;20508;-67
2022/03/20 11:22:09;;;;;;;19.40;14.60;;;;;;;;;;6264532;28;20044;-67
2022/03/20 11:25:11;;;;;;;18.02;14.32;;;;;;;;;;6276430;28;20052;-66
2022/03/20 11:28:14;;;;;;;18.95;13.73;;;;;;;;;;6276906;28;20195;-68
2022/03/20 11:31:16;;;;;;;;;;;;;;;;;;6274088;28;20049;-68
2022/03/20 11:34:19;;;;;;;18.67;14.38;;;;;;;;;;6269927;28;20033;-68
2022/03/20 11:37:20;;;;;;;;;;;;;;;;;;6266454;28;20057;-69
2022/03/20 11:40:25;;;;;;;20.20;15.00;;;;;;;;;;6263390;28;20378;-69
2022/03/20 11:43:27;;;;;;;20.48;14.88;;;;;;;;;;6261152;28;20049;-69
2022/03/20 11:46:30;;;;;;;20.23;15.02;;;;;;;;;;6256821;28;20041;-74
2022/03/20 11:49:34;;;;;;;17.10;14.65;;;;;;;;;;6264590;28;20053;-76
2022/03/20 11:53:00;;;;;;;17.52;14.13;;;;;;;;;;6270047;28;20066;-76
2022/03/20 11:56:01;;;;;;;16.45;13.20;;;;;;;;;;6264055;28;20079;-77
2022/03/20 11:59:03;;;;;;;17.20;13.63;;;;;;;;;;6269698;28;20056;-76
2022/03/20 12:02:06;;;;;;;15.93;12.85;;;;;;;;;;6273952;28;20080;-72
2022/03/20 12:05:14;;;;;;;18.58;13.48;;;;;;;;;;6278639;28;20082;-73
2022/03/20 12:08:30;;;;;;;17.35;14.35;;;;;;;;;;6270571;28;20053;-73
2022/03/20 12:11:40;;;;;;;21.63;14.95;;;;;;;;;;6269481;28;20041;-74
2022/03/20 12:14:43;;;;;;;16.58;14.20;;;;;;;;;;6267724;28;20132;-72
2022/03/20 12:18:00;;;;;;;17.98;15.00;;;;;;;;;;6260352;28;20485;-70
2022/03/20 12:21:03;;;;;;;16.30;14.52;;;;;;;;;;6257241;28;20067;-69
2022/03/20 12:24:47;;;;;;;17.92;14.98;;;;;;;;;;6254652;28;20045;-69
2022/03/20 12:27:48;;;;;;;21.70;14.98;;;;;;;;;;6255208;28;20041;-69
2022/03/20 12:30:50;;;;;;;16.92;15.15;;;;;;;;;;6268398;28;20094;-70
2022/03/20 12:34:19;;;;;;;16.25;14.35;;;;;;;;;;6267093;28;20411;-69
2022/03/20 12:37:42;;;;;;;18.55;14.52;;;;;;;;;;6276324;28;20049;-68
2022/03/20 12:40:43;;;;;;;19.63;15.00;;;;;;;;;;6275627;28;20048;-70
2022/03/20 12:43:58;;;;;;;18.08;14.23;;;;;;;;;;6265900;28;20056;-68
2022/03/20 12:47:01;;;;;;;20.30;14.75;;;;;;;;;;6266795;28;20041;-68
2022/03/20 12:50:06;;;;;;;16.67;14.48;;;;;;;;;;6266772;28;20123;-68
2022/03/20 12:53:13;;;;;;;20.20;14.90;;;;;;;;;;6261725;28;20057;-69
2022/03/20 12:56:20;;;;;;;17.73;15.20;;;;;;;;;;6253566;28;20049;-68
2022/03/20 12:59:24;;;;;;;18.05;14.25;;;;;;;;;;6252529;28;20049;-69
2022/03/20 13:02:25;;;;;;;16.35;14.25;;;;;;;;;;6251137;28;20135;-69
2022/03/20 13:05:28;;;;;;;16.65;13.95;;;;;;;;;;6248791;28;20136;-68
2022/03/20 13:08:32;;;;;;;16.73;14.90;;;;;;;;;;6262052;28;20139;-69
2022/03/20 13:14:55;;;;;;;17.33;15.15;;;;;;;;;;6267575;28;20518;-69
2022/03/20 13:17:57;;;;;;;19.55;15.57;;;;;;;;;;6274541;28;20099;-69
2022/03/20 13:21:04;;;;;;;18.17;15.18;;;;;;;;;;6276571;28;20131;-69
2022/03/20 13:24:07;;;;;;;16.80;14.60;;;;;;;;;;6272411;28;20060;-68
2022/03/20 13:27:11;;;;;;;19.35;15.38;;;;;;;;;;6269045;28;20061;-69
2022/03/20 13:30:12;;;;;;;19.08;15.13;;;;;;;;;;6256900;28;20045;-67
2022/03/20 13:33:14;;;;;;;17.45;15.50;;;;;;;;;;6262241;28;20396;-67
2022/03/20 13:36:15;;;;;;;18.23;15.65;;;;;;;;;;6263360;28;20456;-67
2022/03/20 13:39:21;;;;;;;17.88;14.82;;;;;;;;;;6255014;28;20103;-68
2022/03/20 13:42:24;;;;;;;21.00;15.27;;;;;;;;;;6249746;28;20069;-67
2022/03/20 13:45:26;;;;;;;22.45;15.93;;;;;;;;;;6267840;28;20045;-66
2022/03/20 13:48:28;;;;;;;20.20;15.85;;;;;;;;;;6272608;28;20388;-67
2022/03/20 13:51:30;;;;;;;18.63;15.50;;;;;;;;;;6280577;28;20052;-67
2022/03/20 13:54:36;;;;;;;19.02;16.48;;;;;;;;;;6279306;28;20087;-67
2022/03/20 13:57:49;;;;;;;19.52;15.00;;;;;;;;;;6277315;28;20045;-67
2022/03/20 14:00:59;;;;;;;18.25;14.93;;;;;;;;;;6276554;28;20064;-68
2022/03/20 14:04:15;;;;;;;20.65;15.73;;;;;;;;;;6269393;28;20052;-66
2022/03/20 14:07:20;;;;;;;22.25;15.07;;;;;;;;;;6265743;28;20041;-66
2022/03/20 14:10:23;;;;;;;16.80;14.68;;;;;;;;;;6262067;28;20054;-69
2022/03/20 14:13:26;;;;;;;20.30;14.90;;;;;;;;;;6259914;28;20060;-67
2022/03/20 14:16:28;;;;;;;17.90;14.85;;;;;;;;;;6257257;28;20049;-67
2022/03/20 14:19:44;;;;;;;17.00;14.48;;;;;;;;;;6268187;28;20127;-67
2022/03/20 14:22:49;;;;;;;20.08;15.15;;;;;;;;;;6270495;28;20135;-67
2022/03/20 14:25:53;;;;;;;18.45;15.25;;;;;;;;;;6263771;28;20053;-68
2022/03/20 14:29:07;;;;;;;18.00;15.10;;;;;;;;;;6273700;28;20492;-73
2022/03/20 14:42:23;;;;;;;20.05;15.13;;;;;;;;;;6270598;28;20440;-73
2022/03/20 14:45:27;;;;;;;16.17;14.18;;;;;;;;;;6265381;28;20568;-67
2022/03/20 14:48:29;;;;;;;18.60;15.95;;;;;;;;;;6259837;28;20229;-67
2022/03/20 14:51:31;;;;;;;19.52;15.60;;;;;;;;;;6257350;28;20053;-67
2022/03/20 14:54:33;;;;;;;20.50;15.05;;;;;;;;;;6267137;28;20047;-67
2022/03/20 14:57:36;;;;;;;18.92;15.63;;;;;;;;;;6272712;28;20183;-67
2022/03/20 15:00:37;;;;;;;24.65;16.17;;;;;;;;;;6272980;28;20135;-74
2022/03/20 15:03:39;;;;;;;23.48;15.70;;;;;;;;;;6265448;28;20195;-74
2022/03/20 15:06:42;;;;;;;21.15;16.05;;;;;;;;;;6256060;28;20042;-68
2022/03/20 15:13:05;;;;;;;19.40;15.15;;;;;;;;;;6271471;28;20048;-70
2022/03/20 15:16:07;;;;;;;19.83;15.27;;;;;;;;;;6268936;28;20433;-69
2022/03/20 15:19:10;;;;;;;21.00;15.27;;;;;;;;;;6272902;28;20194;-72
2022/03/20 15:22:11;;;;;;;25.40;17.55;;;;;;;;;;6263923;28;20151;-72
2022/03/20 15:25:13;;;;;;;26.33;16.23;;;;;;;;;;6260826;28;20045;-72
2022/03/20 15:28:16;;;;;;;19.75;15.48;;;;;;;;;;6266211;28;20055;-71
2022/03/20 15:31:18;;;;;;;21.95;15.20;;;;;;;;;;6276985;28;20053;-69
2022/03/20 15:34:20;;;;;;;21.08;15.35;;;;;;;;;;6272572;28;20045;-66
2022/03/20 15:37:21;;;;;;;20.48;16.98;;;;;;;;;;6267868;28;20049;-72
2022/03/20 15:40:23;;;;;;;20.10;15.80;;;;;;;;;;6263893;28;20711;-72
2022/03/20 15:43:26;;;;;;;20.77;15.20;;;;;;;;;;6260168;28;20048;-71
2022/03/20 15:46:27;;;;;;;20.58;15.60;;;;;;;;;;6258074;28;20133;-72
2022/03/20 15:49:29;;;;;;;22.30;15.63;;;;;;;;;;6267124;28;20049;-74
2022/03/20 15:52:31;;;;;;;20.15;15.63;;;;;;;;;;6270627;28;20060;-70
2022/03/20 15:55:32;;;;;;;19.33;15.13;;;;;;;;;;6270332;28;20198;-70
2022/03/20 15:58:37;;;;;;;20.60;15.68;;;;;;;;;;6268139;28;20053;-71
2022/03/20 16:01:38;;;;;;;18.90;15.25;;;;;;;;;;6260476;28;20068;-69
2022/03/20 16:04:40;;;;;;;28.58;18.30;;;;;;;;;;6269747;28;20041;-71
2022/03/20 16:07:41;;;;;;;21.70;14.95;;;;;;;;;;6277078;28;20105;-73
2022/03/20 16:10:43;;;;;;;17.92;14.00;;;;;;;;;;6267803;28;20507;-66
2022/03/20 16:13:46;;;;;;;18.13;13.98;;;;;;;;;;6269394;28;20051;-70
2022/03/20 16:16:48;;;;;;;17.92;13.43;;;;;;;;;;6267849;28;20048;-70
2022/03/20 16:19:49;;;;;;;18.27;14.68;;;;;;;;;;6259972;28;20510;-65
2022/03/20 16:29:30;;;;;;;18.00;14.07;;;;;;;;;;6258606;28;20037;-68
2022/03/20 16:32:32;;;;;;;18.47;14.13;;;;;;;;;;6266824;28;20044;-68
2022/03/20 16:35:33;;;;;;;18.30;13.52;;;;;;;;;;6263378;28;20462;-69
2022/03/20 16:38:35;;;;;;;18.77;12.77;;;;;;;;;;6265559;28;20123;-68
2022/03/20 16:41:37;;;;;;;19.88;13.77;;;;;;;;;;6275403;28;20045;-68
2022/03/20 16:44:40;;;;;;;20.63;14.00;;;;;;;;;;6267667;28;20040;-68
2022/03/20 16:47:42;;;;;;;18.95;14.32;;;;;;;;;;6272958;28;20101;-68
2022/03/20 16:50:44;;;;;;;18.38;13.65;;;;;;;;;;6268342;28;20052;-68
2022/03/20 16:53:46;;;;;;;16.73;13.27;;;;;;;;;;6265314;28;20124;-77
2022/03/20 16:56:47;;;;;;;111.57;70.30;;;;;;;;;;6257816;28;20168;-73
2022/03/20 16:59:51;;;;;;;21.83;15.80;;;;;;;;;;6257370;28;20059;-74
2022/03/20 17:02:52;;;;;;;106.55;62.05;;;;;;;;;;6260256;28;20059;-73
2022/03/20 17:05:54;;;;;;;59.78;33.97;;;;;;;;;;6253826;28;20100;-75
2022/03/20 17:08:56;;;;;;;19.92;13.57;;;;;;;;;;6259501;28;20048;-69
2022/03/20 17:11:57;;;;;;;20.25;13.10;;;;;;;;;;6266263;28;20167;-69
2022/03/20 17:15:00;;;;;;;19.83;13.52;;;;;;;;;;6283387;28;20053;-69
2022/03/20 17:18:02;;;;;;;19.08;13.13;;;;;;;;;;6264765;28;20052;-70
2022/03/20 17:21:04;;;;;;;22.40;13.35;;;;;;;;;;6262854;28;20056;-69
2022/03/20 17:24:06;;;;;;;20.48;12.52;;;;;;;;;;6261977;28;20049;-69
2022/03/20 17:27:08;;;;;;;18.95;12.88;;;;;;;;;;6257726;28;20107;-69
2022/03/20 17:30:12;;;;;;;20.63;12.70;;;;;;;;;;6263386;28;20045;-68
2022/03/20 17:33:14;;;;;;;16.42;11.98;;;;;;;;;;6259749;28;20120;-69
2022/03/20 17:36:16;;;;;;;20.77;12.95;;;;;;;;;;6257388;28;20135;-69
2022/03/20 17:39:17;;;;;;;20.88;13.48;;;;;;;;;;6258229;28;20055;-69
2022/03/20 17:42:20;;;;;;;19.08;12.85;;;;;;;;;;6256858;28;20049;-70
2022/03/20 17:45:23;;;;;;;21.70;12.93;;;;;;;;;;6256095;28;20732;-69
2022/03/20 17:48:29;;;;;;;19.55;12.95;;;;;;;;;;6251989;28;20550;-68
2022/03/20 17:51:31;;;;;;;18.02;12.57;;;;;;;;;;6285435;28;20688;-69
2022/03/20 17:54:32;;;;;;;20.63;13.23;;;;;;;;;;6283098;28;20462;-70
2022/03/20 17:57:34;;;;;;;19.35;12.93;;;;;;;;;;6277122;28;20057;-69
2022/03/20 18:00:37;;;;;;;19.88;12.73;;;;;;;;;;6276790;28;20049;-70
2022/03/20 18:10:20;;;;;;;18.98;12.38;;;;;;;;;;6265458;28;20048;-71
2022/03/20 18:13:23;;;;;;;20.02;13.35;;;;;;;;;;6266808;28;20045;-69
2022/03/20 18:16:26;;;;;;;18.27;11.18;;;;;;;;;;6255953;28;20116;-68
2022/03/20 18:19:28;;;;;;;18.02;12.70;;;;;;;;;;6254674;28;20075;-69
2022/03/20 18:22:30;;;;;;;20.67;12.88;;;;;;;;;;6252398;28;20617;-69
2022/03/20 18:25:32;;;;;;;18.60;12.70;;;;;;;;;;6268073;28;20068;-69
2022/03/20 18:28:34;;;;;;;19.42;13.35;;;;;;;;;;6272222;28;20067;-68
2022/03/20 18:31:37;;;;;;;20.50;13.30;;;;;;;;;;6284776;28;20041;-69
2022/03/20 18:34:38;;;;;;;18.55;12.77;;;;;;;;;;6281938;28;20124;-70
2022/03/20 18:37:41;;;;;;;20.85;13.45;;;;;;;;;;6279084;28;20527;-70
2022/03/20 18:40:43;;;;;;;19.98;12.52;;;;;;;;;;6274704;28;20044;-70
2022/03/20 18:43:44;;;;;;;18.88;13.55;;;;;;;;;;6268641;28;20055;-70
2022/03/20 18:46:47;;;;;;;20.63;12.85;;;;;;;;;;6268901;28;20128;-70
2022/03/20 18:49:50;;;;;;;21.50;14.23;;;;;;;;;;6264740;28;20050;-70
2022/03/20 18:52:52;;;;;;;20.88;13.55;;;;;;;;;;6265939;28;20183;-70
2022/03/20 18:55:58;;;;;;;21.80;14.07;;;;;;;;;;6263920;28;20041;-72